Time;durP1;ratioP1;P1;durP2;ratioP2;P2;SDS_P1;SDS_P2;PMS_P1;PMS_P2;Temp;Humidity;BMP_temperature;BMP_pressure;BME280_temperature;BME280_humidity;BME280_pressure;Samples;Min_cycle;Max_cycle;Signal;HPM_P1;HPM_P2
2023/08/13 07:01:21;;;;;;;0.10;0.10;;;19.40;99.90;23.10;101458.00;;;;6054444;22;4088918;-72
2023/08/13 07:03:47;;;;;;;0.10;0.10;;;19.50;99.90;23.50;101472.00;;;;6215494;23;20178;-72
2023/08/13 07:06:14;;;;;;;0.10;0.10;;;19.70;99.90;23.20;101476.00;;;;6190676;23;20162;-71
2023/08/13 07:08:40;;;;;;;0.10;0.10;;;19.70;99.90;23.40;101451.00;;;;6190924;23;20576;-72
2023/08/13 07:11:06;;;;;;;1.38;0.25;;;19.70;99.90;23.20;101468.00;;;;6216274;23;20174;-71
2023/08/13 07:13:35;;;;;;;0.93;0.40;;;19.90;99.90;23.00;101390.00;;;;6216239;23;20190;-71
2023/08/13 07:16:01;;;;;;;0.10;0.10;;;19.80;99.90;23.40;101473.00;;;;6215988;23;20306;-71
2023/08/13 07:18:35;;;;;;;0.10;0.10;;;19.70;99.90;23.40;101469.00;;;;6191070;23;20158;-71
2023/08/13 07:21:04;;;;;;;0.22;0.22;;;19.80;99.90;22.90;101441.00;;;;6217060;23;20142;-72
2023/08/13 07:23:32;;;;;;;0.10;0.10;;;19.70;99.90;23.40;101459.00;;;;6215416;23;20216;-71
2023/08/13 07:25:59;;;;;;;0.10;0.10;;;19.90;99.90;22.90;101453.00;;;;6215908;23;20147;-72
2023/08/13 07:28:34;;;;;;;0.17;0.17;;;19.70;99.90;23.70;101426.00;;;;6190380;23;20237;-73
2023/08/13 07:31:05;;;;;;;0.10;0.10;;;19.90;99.90;23.40;101481.00;;;;6215561;23;20165;-72
2023/08/13 07:33:32;;;;;;;0.10;0.10;;;20.00;99.90;22.60;101460.00;;;;6216347;23;20146;-74
2023/08/13 07:36:04;;;;;;;0.10;0.10;;;19.70;99.90;23.50;101480.00;;;;6217311;23;20510;-73
2023/08/13 07:38:30;;;;;;;0.73;0.20;;;19.80;99.90;23.80;101473.00;;;;6217315;23;20143;-74
2023/08/13 07:40:57;;;;;;;0.10;0.10;;;20.00;99.90;23.50;101475.00;;;;6215716;23;20469;-73
2023/08/13 07:43:28;;;;;;;0.73;0.73;;;20.10;99.90;23.40;101471.00;;;;6215609;23;20190;-73
2023/08/13 07:45:54;;;;;;;0.20;0.20;;;20.30;99.90;24.40;101478.00;;;;6217003;23;20138;-71
2023/08/13 07:48:20;;;;;;;0.10;0.10;;;20.80;99.90;23.90;101462.00;;;;6217169;23;20286;-74
2023/08/13 07:50:46;;;;;;;0.10;0.10;;;20.60;99.90;24.50;101473.00;;;;6217202;23;20142;-74
2023/08/13 07:53:12;;;;;;;0.10;0.10;;;20.70;99.90;24.20;101459.00;;;;6217328;23;20157;-74
2023/08/13 07:55:46;;;;;;;0.17;0.17;;;20.70;99.90;25.50;101479.00;;;;6190891;23;20165;-73
2023/08/13 07:58:14;;;;;;;0.10;0.10;;;21.10;99.90;25.70;101484.00;;;;6216046;23;20143;-74
2023/08/13 08:00:41;;;;;;;0.10;0.10;;;21.40;99.90;25.20;101484.00;;;;6190676;23;20174;-73
2023/08/13 08:03:12;;;;;;;0.10;0.10;;;21.60;99.90;25.80;101472.00;;;;6216141;23;20193;-74
2023/08/13 08:05:39;;;;;;;0.10;0.10;;;21.60;99.90;25.60;101427.00;;;;6215718;23;20467;-74
2023/08/13 08:08:08;;;;;;;0.10;0.10;;;21.80;99.90;24.20;101473.00;;;;6214917;23;20134;-71
2023/08/13 08:10:34;;;;;;;0.17;0.17;;;21.50;99.90;23.80;101463.00;;;;6216234;23;20134;-73
2023/08/13 08:13:06;;;;;;;1.17;0.52;;;20.80;99.90;23.30;101462.00;;;;6217797;23;20146;-73
2023/08/13 08:15:31;;;;;;;0.10;0.10;;;20.50;99.90;23.40;101467.00;;;;6216511;23;20147;-74
2023/08/13 08:18:03;;;;;;;0.10;0.10;;;20.30;99.90;22.90;101413.00;;;;6217495;23;20143;-73
2023/08/13 08:20:29;;;;;;;0.10;0.10;;;20.20;99.90;24.30;101463.00;;;;6215296;23;20454;-73
2023/08/13 08:22:57;;;;;;;15.35;0.63;;;20.40;99.90;23.80;101445.00;;;;6217351;23;20627;-73
2023/08/13 08:25:24;;;;;;;0.20;0.20;;;20.40;99.90;24.30;101452.00;;;;6217445;23;20139;-74
2023/08/13 08:27:55;;;;;;;0.10;0.10;;;20.70;99.90;25.70;101463.00;;;;6190316;23;20241;-74
2023/08/13 08:30:21;;;;;;;0.10;0.10;;;21.30;99.90;26.60;101473.00;;;;6214955;23;20154;-74
2023/08/13 08:32:53;;;;;;;0.80;0.80;;;21.90;99.90;25.30;101474.00;;;;6190471;23;20506;-73
2023/08/13 08:35:21;;;;;;;0.08;0.08;;;22.00;99.90;24.30;101380.00;;;;6189894;23;20155;-73
2023/08/13 08:37:47;;;;;;;0.10;0.10;;;21.30;99.90;25.90;101463.00;;;;6215339;23;20209;-72
2023/08/13 08:40:19;;;;;;;0.10;0.10;;;21.70;99.90;25.30;101448.00;;;;6215484;23;20147;-74
2023/08/13 08:42:45;;;;;;;0.10;0.10;;;21.70;99.90;25.00;101448.00;;;;6215025;23;20177;-73
2023/08/13 08:45:17;;;;;;;0.10;0.10;;;21.80;99.90;25.40;101451.00;;;;6215325;23;20158;-73
2023/08/13 08:47:52;;;;;;;0.10;0.10;;;21.90;99.90;25.30;101455.00;;;;6214715;23;20641;-73
2023/08/13 08:50:18;;;;;;;0.10;0.10;;;22.00;99.90;24.70;101403.00;;;;6190477;23;20157;-73
2023/08/13 08:52:44;;;;;;;0.10;0.10;;;21.80;99.90;25.40;101449.00;;;;6215491;23;20173;-73
2023/08/13 08:55:13;;;;;;;0.10;0.10;;;21.70;99.90;25.60;101463.00;;;;6215114;23;20149;-74
2023/08/13 08:57:40;;;;;;;0.45;0.22;;;21.90;99.90;25.00;101445.00;;;;6215315;23;20142;-73
2023/08/13 09:00:09;;;;;;;0.10;0.10;;;21.70;99.90;24.80;101396.00;;;;6214544;23;20676;-74
2023/08/13 09:02:38;;;;;;;0.10;0.10;;;21.70;99.90;25.50;101450.00;;;;6189882;23;20286;-73
2023/08/13 09:05:06;;;;;;;0.10;0.10;;;21.90;99.90;27.60;101483.00;;;;6214593;23;20143;-74
2023/08/13 09:07:42;;;;;;;0.10;0.10;;;23.10;99.90;28.90;101512.00;;;;6215842;23;20142;-74
2023/08/13 09:10:11;;;;;;;0.10;0.10;;;24.10;99.90;26.80;101536.00;;;;6214721;23;20150;-74
2023/08/13 09:12:45;;;;;;;0.10;0.10;;;23.90;99.90;27.60;101528.00;;;;6214899;23;20142;-74
2023/08/13 09:15:13;;;;;;;0.10;0.10;;;24.00;99.90;28.20;101522.00;;;;6216298;23;20633;-74
2023/08/13 09:17:44;;;;;;;0.10;0.10;;;24.50;99.90;28.10;101518.00;;;;6215855;23;20138;-74
2023/08/13 09:20:19;;;;;;;0.10;0.10;;;24.30;99.90;31.70;101536.00;;;;6189321;23;20162;-74
2023/08/13 09:22:50;;;;;;;0.10;0.10;;;26.10;99.90;32.80;101513.00;;;;6189528;23;20180;-72
2023/08/13 09:25:18;;;;;;;0.10;0.10;;;27.80;99.90;32.30;101506.00;;;;6214338;23;20142;-74
2023/08/13 09:27:50;;;;;;;0.10;0.10;;;27.90;99.90;32.30;101509.00;;;;6214278;23;20208;-74
2023/08/13 09:30:27;;;;;;;0.38;0.38;;;27.90;99.90;30.40;101549.00;;;;6215855;23;20253;-74
2023/08/13 09:32:58;;;;;;;0.10;0.10;;;27.60;99.90;29.40;101569.00;;;;6214636;23;20143;-74
2023/08/13 09:35:28;;;;;;;0.10;0.10;;;26.20;99.90;28.50;101565.00;;;;6214318;23;20139;-74
2023/08/13 09:37:57;;;;;;;0.10;0.10;;;25.50;99.90;30.00;101512.00;;;;6214386;23;20146;-74
2023/08/13 09:40:23;;;;;;;1.25;1.17;;;25.70;99.90;28.50;101505.00;;;;6214599;23;20269;-74
2023/08/13 09:42:59;;;;;;;0.30;0.30;;;25.40;99.90;28.50;101561.00;;;;6214162;23;20166;-74
2023/08/13 09:45:32;;;;;;;0.10;0.10;;;25.40;99.90;28.90;101560.00;;;;6214565;23;20161;-74
2023/08/13 09:48:09;;;;;;;1.17;0.22;;;25.30;99.90;27.60;101574.00;;;;6214244;23;20143;-74
2023/08/13 09:50:41;;;;;;;0.20;0.20;;;25.00;99.90;28.60;101553.00;;;;6214769;23;20158;-74
2023/08/13 09:53:14;;;;;;;0.10;0.10;;;24.90;99.90;28.80;101525.00;;;;6214474;23;20151;-74
2023/08/13 09:55:55;;;;;;;15.38;1.35;;;25.00;99.90;27.10;101561.00;;;;6214909;23;20139;-74
2023/08/13 09:58:31;;;;;;;0.10;0.10;;;24.80;99.90;29.90;101534.00;;;;6214248;23;20245;-74
2023/08/13 10:00:58;;;;;;;0.10;0.10;;;25.50;99.90;31.60;101515.00;;;;6189087;23;20174;-74
2023/08/13 10:03:31;;;;;;;0.55;0.50;;;26.60;99.90;32.00;101483.00;;;;6188781;23;20511;-74
2023/08/13 10:05:57;;;;;;;0.20;0.15;;;27.70;99.90;30.50;101523.00;;;;6214372;23;20242;-73
2023/08/13 10:08:29;;;;;;;0.10;0.10;;;27.30;99.90;29.20;101530.00;;;;6215306;23;20650;-74
2023/08/13 10:11:00;;;;;;;0.10;0.10;;;26.30;99.90;30.30;101511.00;;;;6215728;23;20147;-74
2023/08/13 10:13:27;;;;;;;0.20;0.20;;;26.50;99.90;32.50;101476.00;;;;6214369;23;20156;-74
2023/08/13 10:15:58;;;;;;;0.20;0.20;;;27.50;99.90;29.80;101512.00;;;;6214005;23;20146;-74
2023/08/13 10:18:29;;;;;;;0.10;0.10;;;27.20;99.90;28.90;101533.00;;;;6213381;23;20150;-74
2023/08/13 10:33:35;;;;;;;2.08;1.02;;;26.00;99.90;28.40;101479.00;;;;5070080;28;20915;-74
2023/08/13 10:36:09;;;;;;;0.10;0.10;;;25.90;99.90;29.40;101493.00;;;;5049131;28;20193;-74
2023/08/13 10:38:39;;;;;;;1.90;1.08;;;25.80;99.90;28.10;101502.00;;;;5032497;28;20185;-75
2023/08/13 10:41:34;;;;;;;0.10;0.10;;;25.20;99.90;28.20;101363.00;;;;5050661;28;20535;-75
2023/08/13 10:44:00;;;;;;;0.57;0.28;;;24.40;99.90;28.60;101501.00;;;;5022757;28;20191;-74
2023/08/13 10:46:48;;;;;;;0.45;0.45;;;25.20;99.90;28.00;101484.00;;;;5045412;28;20190;-74
2023/08/13 10:49:17;;;;;;;1.48;1.05;;;24.60;99.90;27.80;101462.00;;;;5049922;28;20196;-74
2023/08/13 10:51:43;;;;;;;0.22;0.22;;;24.90;99.90;28.20;101507.00;;;;5050249;28;20202;-74
2023/08/13 10:54:09;;;;;;;0.10;0.10;;;24.90;99.90;27.80;101493.00;;;;5050203;28;20189;-74
2023/08/13 10:56:45;;;;;;;0.98;0.98;;;24.60;99.90;29.00;101500.00;;;;5032414;28;20216;-74
2023/08/13 10:59:12;;;;;;;0.68;0.68;;;24.90;99.90;29.20;101451.00;;;;5048535;28;20181;-73
2023/08/13 11:02:13;;;;;;;0.10;0.10;;;25.10;99.90;29.40;101460.00;;;;5048419;28;20288;-74
2023/08/13 11:04:46;;;;;;;1.08;0.65;;;25.30;99.90;26.60;101510.00;;;;5048549;28;20667;-73
2023/08/13 11:07:17;;;;;;;0.10;0.10;;;24.30;99.90;30.10;101482.00;;;;5029236;28;20183;-74
2023/08/13 11:09:43;;;;;;;0.10;0.10;;;25.20;99.90;28.60;101500.00;;;;5048770;28;20188;-74
2023/08/13 11:12:10;;;;;;;13.68;0.75;;;25.20;99.90;30.00;101477.00;;;;5048069;28;20210;-73
2023/08/13 11:14:40;;;;;;;0.17;0.17;;;26.00;99.90;31.10;101479.00;;;;5031343;28;20259;-74
2023/08/13 11:17:07;;;;;;;5.63;0.55;;;26.50;99.90;30.20;101483.00;;;;5048380;28;20186;-74
2023/08/13 11:19:33;;;;;;;0.60;0.15;;;26.60;99.90;28.30;101495.00;;;;5044332;28;20194;-73
2023/08/13 11:22:04;;;;;;;0.20;0.20;;;25.70;99.90;29.60;101494.00;;;;5048297;28;20186;-74
2023/08/13 11:24:34;;;;;;;0.30;0.30;;;26.00;99.90;30.40;101479.00;;;;5049258;28;20178;-74
2023/08/13 11:27:00;;;;;;;0.10;0.10;;;26.40;99.90;29.00;101486.00;;;;5049650;28;20182;-74
2023/08/13 11:29:30;;;;;;;1.25;0.82;;;26.40;99.90;27.90;101500.00;;;;5031357;28;20684;-73
2023/08/13 11:31:56;;;;;;;0.10;0.10;;;25.40;99.90;29.90;101490.00;;;;5047631;28;20706;-74
2023/08/13 11:34:27;;;;;;;1.20;0.32;;;25.80;99.90;29.90;101481.00;;;;5049072;28;20186;-74
2023/08/13 11:36:55;;;;;;;0.10;0.10;;;26.40;99.90;30.10;101487.00;;;;5047919;28;20174;-73
2023/08/13 11:39:21;;;;;;;0.25;0.20;;;26.50;99.90;28.40;101499.00;;;;5044571;28;20190;-74
2023/08/13 11:41:47;;;;;;;0.10;0.10;;;26.00;99.90;28.80;101504.00;;;;5062607;28;20645;-73
2023/08/13 11:44:13;;;;;;;0.20;0.20;;;25.60;99.90;30.40;101486.00;;;;5037494;28;20556;-74
2023/08/13 11:46:57;;;;;;;0.10;0.10;;;26.10;99.90;31.20;101417.00;;;;5034332;28;20179;-74
2023/08/13 11:49:24;;;;;;;0.10;0.10;;;26.80;99.90;29.90;101486.00;;;;5034366;28;20182;-73
2023/08/13 11:51:52;;;;;;;0.68;0.68;;;26.40;99.90;30.10;101489.00;;;;5034274;28;20206;-73
2023/08/13 11:54:19;;;;;;;0.10;0.10;;;26.10;99.90;30.30;101475.00;;;;5035799;28;20183;-72
2023/08/13 11:56:52;;;;;;;0.63;0.63;;;26.10;99.90;29.10;101504.00;;;;5034289;28;20187;-72
2023/08/13 11:59:36;;;;;;;0.10;0.10;;;25.80;99.90;30.80;101476.00;;;;5033946;28;20240;-73
2023/08/13 12:02:05;;;;;;;0.10;0.10;;;26.50;99.90;31.20;101469.00;;;;5035397;28;20269;-73
2023/08/13 12:04:39;;;;;;;0.10;0.10;;;26.90;99.90;30.40;101476.00;;;;5025118;28;20199;-73
2023/08/13 12:07:09;;;;;;;0.45;0.45;;;27.00;99.90;29.00;101501.00;;;;5027033;28;20182;-73
2023/08/13 12:09:38;;;;;;;0.10;0.10;;;26.10;99.90;28.40;101505.00;;;;5023042;28;20278;-72
2023/08/13 12:12:04;;;;;;;0.10;0.10;;;25.20;99.90;29.60;101486.00;;;;5033835;28;20281;-73
2023/08/13 12:14:43;;;;;;;10.18;1.80;;;25.50;99.90;27.80;101524.00;;;;5029826;28;20560;-72
2023/08/13 12:17:18;;;;;;;0.10;0.10;;;25.20;99.90;27.80;101525.00;;;;5034084;28;20265;-73
2023/08/13 12:19:46;;;;;;;1.95;1.45;;;24.90;99.90;29.10;101513.00;;;;5017582;28;20260;-72
2023/08/13 12:22:13;;;;;;;0.10;0.10;;;25.20;99.90;30.50;101462.00;;;;5031648;28;20598;-73
2023/08/13 12:24:41;;;;;;;0.10;0.10;;;25.90;99.90;30.50;101514.00;;;;5034302;28;20258;-73
2023/08/13 12:27:12;;;;;;;0.10;0.10;;;26.20;99.90;30.20;101511.00;;;;5033302;28;20179;-73
2023/08/13 12:29:41;;;;;;;0.30;0.30;;;26.00;99.90;30.50;101520.00;;;;5033995;28;20195;-73
2023/08/13 12:32:07;;;;;;;0.10;0.10;;;26.00;99.90;30.50;101520.00;;;;5033129;28;20217;-73
2023/08/13 12:34:36;;;;;;;0.20;0.20;;;26.00;99.90;30.00;101525.00;;;;5033296;28;20733;-73
2023/08/13 12:37:02;;;;;;;0.10;0.10;;;25.70;99.90;29.50;101531.00;;;;5035032;28;20281;-73
2023/08/13 12:39:31;;;;;;;0.10;0.10;;;25.40;99.90;29.40;101527.00;;;;5034514;28;20586;-73
2023/08/13 12:41:57;;;;;;;0.20;0.20;;;25.00;99.90;28.80;101532.00;;;;5034142;28;20210;-73
2023/08/13 12:44:23;;;;;;;0.20;0.20;;;24.80;99.90;28.80;101516.00;;;;5033324;28;20591;-73
2023/08/13 12:46:49;;;;;;;8.30;0.55;;;24.50;99.90;28.60;101519.00;;;;5017103;28;20190;-73
2023/08/13 12:49:15;;;;;;;0.10;0.10;;;24.40;99.90;28.60;101453.00;;;;5034522;28;20179;-72
2023/08/13 12:51:49;;;;;;;0.10;0.10;;;24.30;99.90;28.80;101499.00;;;;5033042;28;20202;-73
2023/08/13 12:54:15;;;;;;;0.10;0.10;;;24.30;99.90;28.80;101507.00;;;;5033195;28;20645;-73
2023/08/13 12:56:49;;;;;;;0.20;0.20;;;24.40;99.90;29.00;101493.00;;;;5033454;28;20186;-73
2023/08/13 12:59:17;;;;;;;0.10;0.10;;;24.40;99.90;28.50;101498.00;;;;5032975;28;20557;-73
2023/08/13 13:01:47;;;;;;;0.10;0.10;;;24.40;99.90;28.60;101486.00;;;;5034531;28;20198;-73
2023/08/13 13:04:18;;;;;;;0.10;0.10;;;24.30;99.90;28.40;101485.00;;;;5030987;28;20175;-73
2023/08/13 13:06:45;;;;;;;0.38;0.38;;;24.20;99.90;28.50;101483.00;;;;5033030;28;20626;-73
2023/08/13 13:09:16;;;;;;;0.10;0.10;;;24.30;99.90;27.60;101471.00;;;;5033003;28;20201;-73
2023/08/13 13:11:47;;;;;;;0.10;0.10;;;24.20;99.90;28.90;101460.00;;;;5015129;28;20211;-73
2023/08/13 13:14:13;;;;;;;0.20;0.20;;;24.40;99.90;27.30;101480.00;;;;5034067;28;20198;-73
2023/08/13 13:16:39;;;;;;;0.10;0.10;;;24.20;99.90;28.20;101434.00;;;;5034105;28;20187;-73
2023/08/13 13:19:05;;;;;;;0.10;0.10;;;24.30;99.90;29.10;101462.00;;;;5032582;28;20190;-73
2023/08/13 13:21:33;;;;;;;0.20;0.20;;;24.70;99.90;29.40;101469.00;;;;5032308;28;20618;-73
2023/08/13 13:23:59;;;;;;;0.10;0.10;;;24.90;99.90;29.40;101468.00;;;;5032743;28;20649;-72
2023/08/13 13:26:25;;;;;;;3.20;0.68;;;24.90;99.90;29.60;101483.00;;;;5031683;28;20189;-73
2023/08/13 13:28:51;;;;;;;0.40;0.40;;;25.20;99.90;30.00;101489.00;;;;5032620;28;20554;-73
2023/08/13 13:31:26;;;;;;;0.52;0.32;;;25.40;99.90;30.20;101444.00;;;;5015785;28;20269;-73
2023/08/13 13:33:52;;;;;;;0.10;0.10;;;25.70;99.90;30.90;101495.00;;;;5033556;28;20178;-73
2023/08/13 13:36:21;;;;;;;0.10;0.10;;;26.10;99.90;31.50;101489.00;;;;5015903;28;20183;-72
2023/08/13 13:38:46;;;;;;;1.00;1.00;;;26.50;99.90;31.10;101494.00;;;;5032269;28;20213;-73
2023/08/13 13:41:12;;;;;;;0.20;0.20;;;26.60;99.90;27.80;101511.00;;;;5031913;28;20645;-72
2023/08/13 13:43:38;;;;;;;0.10;0.10;;;25.20;99.90;30.10;101488.00;;;;5033187;28;20664;-73
2023/08/13 13:46:05;;;;;;;0.10;0.10;;;25.50;99.90;30.70;101479.00;;;;5033738;28;20273;-72
2023/08/13 13:48:34;;;;;;;1.45;0.75;;;25.90;99.90;30.40;101494.00;;;;5033693;28;20182;-72
2023/08/13 13:51:00;;;;;;;0.10;0.10;;;26.20;99.90;30.10;101495.00;;;;5033420;28;20187;-73
2023/08/13 13:53:31;;;;;;;0.32;0.32;;;26.00;99.90;30.20;101492.00;;;;5015427;28;20565;-74
2023/08/13 13:55:57;;;;;;;0.10;0.10;;;26.10;99.90;30.70;101446.00;;;;5015405;28;20270;-74
2023/08/13 13:58:23;;;;;;;0.10;0.10;;;26.30;99.90;31.20;101481.00;;;;5033538;28;20587;-74
2023/08/13 14:00:55;;;;;;;0.10;0.10;;;26.50;99.90;31.50;101486.00;;;;5032106;28;20517;-75
2023/08/13 14:03:27;;;;;;;0.20;0.20;;;26.80;99.90;31.80;101487.00;;;;5031827;28;20214;-74
2023/08/13 14:05:53;;;;;;;0.38;0.38;;;27.20;99.90;31.40;101491.00;;;;5032950;28;20646;-73
2023/08/13 14:08:22;;;;;;;0.10;0.10;;;27.00;99.90;30.30;101493.00;;;;5032774;28;20217;-75
2023/08/13 14:10:51;;;;;;;0.20;0.20;;;26.40;99.90;30.60;101496.00;;;;5032059;28;20187;-74
2023/08/13 14:13:20;;;;;;;0.10;0.10;;;26.30;99.90;30.60;101499.00;;;;5031553;28;20313;-74
2023/08/13 14:15:49;;;;;;;0.10;0.10;;;26.30;99.90;30.90;101492.00;;;;5031772;28;20183;-74
2023/08/13 14:18:20;;;;;;;1.45;1.25;;;26.30;99.90;30.70;101457.00;;;;5031759;28;20680;-74
2023/08/13 14:20:50;;;;;;;0.10;0.10;;;26.40;99.90;30.90;101496.00;;;;5031804;28;20183;-74
2023/08/13 14:23:19;;;;;;;0.50;0.47;;;26.40;99.90;30.60;101490.00;;;;5031836;28;20179;-74
2023/08/13 14:25:45;;;;;;;0.15;0.15;;;26.40;99.90;27.90;101523.00;;;;5031788;28;20182;-74
2023/08/13 14:28:16;;;;;;;5.38;0.47;;;25.20;99.90;29.70;101521.00;;;;5033185;28;20221;-74
2023/08/13 14:30:42;;;;;;;7.88;1.08;;;25.30;99.90;27.20;101524.00;;;;5027169;28;20186;-74
2023/08/13 14:33:11;;;;;;;0.40;0.40;;;24.60;99.90;27.00;101419.00;;;;5032652;28;20218;-74
2023/08/13 14:35:42;;;;;;;1.00;0.68;;;24.00;99.90;26.20;101406.00;;;;5031648;28;20209;-74
2023/08/13 14:38:12;;;;;;;0.20;0.20;;;23.80;99.90;27.10;101421.00;;;;5031016;28;20183;-74
2023/08/13 14:40:38;;;;;;;0.50;0.50;;;23.90;99.90;29.30;101453.00;;;;5033132;28;20198;-74
2023/08/13 14:43:12;;;;;;;0.65;0.65;;;24.50;99.90;29.00;101497.00;;;;5032776;28;20191;-75
2023/08/13 14:45:38;;;;;;;0.43;0.43;;;25.00;99.90;27.20;101482.00;;;;5032587;28;20210;-74
2023/08/13 14:48:07;;;;;;;0.10;0.10;;;24.40;99.90;26.90;101426.00;;;;5032824;28;20248;-74
2023/08/13 14:50:33;;;;;;;0.10;0.10;;;23.90;99.90;28.50;101449.00;;;;5031649;28;20183;-74
2023/08/13 14:52:59;;;;;;;0.10;0.10;;;24.40;99.90;30.00;101468.00;;;;5031392;28;20273;-74
2023/08/13 14:55:25;;;;;;;0.20;0.20;;;25.20;99.90;28.00;101491.00;;;;5032524;28;20191;-74
2023/08/13 14:57:54;;;;;;;3.65;0.63;;;24.90;99.90;29.00;101487.00;;;;5031460;28;20183;-74
2023/08/13 15:00:25;;;;;;;0.22;0.22;;;25.20;99.90;28.10;101494.00;;;;5032672;28;20183;-74
2023/08/13 15:02:51;;;;;;;0.10;0.10;;;24.70;99.90;29.60;101476.00;;;;5032510;28;20500;-74
2023/08/13 15:05:22;;;;;;;1.48;0.75;;;25.10;99.90;29.70;101483.00;;;;5031555;28;20362;-74
2023/08/13 15:07:50;;;;;;;0.30;0.30;;;25.40;99.90;30.10;101447.00;;;;5032366;28;20183;-74
2023/08/13 15:10:22;;;;;;;0.15;0.15;;;25.80;99.90;30.10;101435.00;;;;5031461;28;20197;-74
2023/08/13 15:12:53;;;;;;;0.10;0.10;;;25.70;99.90;28.70;101490.00;;;;5027800;28;20254;-74
2023/08/13 15:15:19;;;;;;;0.38;0.38;;;25.10;99.90;27.00;101442.00;;;;5031441;28;20547;-74
2023/08/13 15:17:45;;;;;;;0.45;0.45;;;24.60;99.90;26.60;101455.00;;;;5032680;28;20186;-74
2023/08/13 15:20:14;;;;;;;0.25;0.25;;;23.90;99.90;27.70;101440.00;;;;5034709;28;20186;-74
2023/08/13 15:22:40;;;;;;;0.68;0.68;;;24.00;99.90;28.30;101455.00;;;;5018317;28;20183;-74
2023/08/13 15:25:12;;;;;;;1.10;0.90;;;24.20;99.90;29.30;101465.00;;;;5036029;28;20190;-74
2023/08/13 15:27:37;;;;;;;0.10;0.10;;;24.80;99.90;29.70;101461.00;;;;5018248;28;20190;-75
2023/08/13 15:30:13;;;;;;;0.85;0.85;;;25.10;99.90;29.50;101463.00;;;;5036394;28;20187;-75
2023/08/13 15:32:40;;;;;;;0.10;0.10;;;25.30;99.90;28.00;101483.00;;;;5018161;28;20578;-74
2023/08/13 15:35:14;;;;;;;0.15;0.15;;;24.90;99.90;28.60;101470.00;;;;5034819;28;20321;-75
2023/08/13 15:37:40;;;;;;;0.25;0.25;;;24.60;99.90;28.70;101483.00;;;;5035068;28;20185;-74
2023/08/13 15:40:07;;;;;;;0.70;0.70;;;24.80;99.90;27.50;101476.00;;;;5035705;28;20193;-74
2023/08/13 15:42:35;;;;;;;0.10;0.10;;;24.40;99.90;29.40;101454.00;;;;5018456;28;20256;-75
2023/08/13 15:45:06;;;;;;;0.32;0.32;;;24.70;99.90;28.60;101472.00;;;;5034167;28;20198;-74
2023/08/13 15:47:32;;;;;;;0.10;0.10;;;25.00;99.90;27.90;101473.00;;;;5034560;28;20280;-74
2023/08/13 15:50:02;;;;;;;0.10;0.10;;;24.50;99.90;29.70;101472.00;;;;5035465;28;20661;-74
2023/08/13 15:52:28;;;;;;;0.10;0.10;;;25.10;99.90;27.00;101455.00;;;;5005180;28;20607;-74
2023/08/13 15:54:54;;;;;;;3.20;0.68;;;24.20;99.90;27.50;101426.00;;;;5017811;28;20206;-74
2023/08/13 15:57:25;;;;;;;0.40;0.40;;;24.00;99.90;27.60;101436.00;;;;5034715;28;20665;-74
2023/08/13 15:59:54;;;;;;;0.10;0.10;;;24.20;99.90;27.10;101436.00;;;;5033283;28;20183;-74
2023/08/13 16:02:23;;;;;;;4.13;1.02;;;24.00;99.90;28.00;101444.00;;;;5031285;28;20675;-75
2023/08/13 16:04:49;;;;;;;0.10;0.10;;;24.30;99.90;27.40;101448.00;;;;5034026;28;20183;-74
2023/08/13 16:07:18;;;;;;;0.20;0.20;;;24.20;99.90;28.90;101449.00;;;;5034943;28;20265;-74
2023/08/13 16:09:43;;;;;;;0.30;0.30;;;24.40;99.90;28.10;101453.00;;;;5035506;28;20179;-74
2023/08/13 16:12:17;;;;;;;0.10;0.10;;;24.30;99.90;27.10;101434.00;;;;5035275;28;20281;-74
2023/08/13 16:14:43;;;;;;;0.10;0.10;;;23.90;99.90;28.90;101447.00;;;;5034294;28;20190;-75
2023/08/13 16:17:15;;;;;;;0.10;0.10;;;24.30;99.90;29.70;101453.00;;;;5033973;28;20186;-74
2023/08/13 16:19:41;;;;;;;0.20;0.20;;;24.80;99.90;29.10;101469.00;;;;5030552;28;20262;-74
2023/08/13 16:22:12;;;;;;;0.40;0.40;;;25.00;99.90;27.00;101471.00;;;;5034128;28;20274;-74
2023/08/13 16:24:41;;;;;;;0.10;0.10;;;24.20;99.90;27.30;101407.00;;;;5035046;28;20559;-74
2023/08/13 16:27:06;;;;;;;0.20;0.20;;;24.00;99.90;26.70;101405.00;;;;5035171;28;20187;-74
2023/08/13 16:29:38;;;;;;;0.28;0.28;;;23.70;99.90;26.70;101448.00;;;;5033787;28;20478;-75
2023/08/13 16:32:04;;;;;;;0.10;0.10;;;23.60;99.90;26.90;101436.00;;;;5033455;28;20210;-75
2023/08/13 16:34:33;;;;;;;0.47;0.47;;;23.50;99.90;26.10;101431.00;;;;5033665;28;20236;-73
2023/08/13 16:37:02;;;;;;;0.50;0.50;;;23.40;99.90;26.60;101407.00;;;;5017100;28;20175;-74
2023/08/13 16:39:31;;;;;;;0.57;0.57;;;23.40;99.90;26.30;101431.00;;;;5035067;28;20208;-74
2023/08/13 16:41:57;;;;;;;2.30;0.82;;;23.50;99.90;26.70;101396.00;;;;5034726;28;20198;-74
2023/08/13 16:44:28;;;;;;;0.20;0.20;;;23.50;99.90;26.60;101420.00;;;;5033682;28;20189;-74
2023/08/13 16:46:54;;;;;;;0.13;0.13;;;23.50;99.90;27.10;101419.00;;;;5030784;28;20285;-74
2023/08/13 16:49:26;;;;;;;0.15;0.15;;;23.60;99.90;26.90;101427.00;;;;5033380;28;20329;-74
2023/08/13 16:51:57;;;;;;;0.20;0.20;;;23.60;99.90;26.60;101424.00;;;;5032875;28;20210;-73
2023/08/13 16:54:23;;;;;;;0.10;0.10;;;23.40;99.90;26.20;101401.00;;;;5033107;28;20179;-74
2023/08/13 16:56:49;;;;;;;0.20;0.20;;;23.20;99.90;27.40;101406.00;;;;5032915;28;20186;-74
2023/08/13 16:59:15;;;;;;;0.20;0.20;;;23.30;99.90;28.60;101429.00;;;;5033996;28;20183;-74
2023/08/13 17:01:44;;;;;;;0.10;0.10;;;24.00;99.90;28.50;101431.00;;;;5034222;28;20187;-74
2023/08/13 17:04:10;;;;;;;0.20;0.20;;;24.00;99.90;27.70;101433.00;;;;5013167;28;20187;-74
2023/08/13 17:06:41;;;;;;;0.20;0.20;;;24.00;99.90;27.00;101440.00;;;;5065927;28;20197;-74
2023/08/13 17:09:08;;;;;;;0.10;0.10;;;23.80;99.90;26.70;101420.00;;;;5033048;28;20187;-74
2023/08/13 17:11:37;;;;;;;0.20;0.20;;;23.50;99.90;26.70;101417.00;;;;5034379;28;20206;-74
2023/08/13 17:14:03;;;;;;;0.10;0.10;;;23.40;99.90;27.40;101421.00;;;;5034472;28;20198;-74
2023/08/13 17:16:32;;;;;;;0.55;0.55;;;23.40;99.90;26.70;101436.00;;;;5034178;28;20183;-74
2023/08/13 17:18:57;;;;;;;0.10;0.10;;;23.40;99.90;26.70;101400.00;;;;5033919;28;20235;-74
2023/08/13 17:21:32;;;;;;;0.95;0.95;;;23.20;99.90;27.80;101421.00;;;;5032708;28;20544;-74
2023/08/13 17:23:58;;;;;;;0.20;0.20;;;23.50;99.90;28.00;101440.00;;;;5055161;28;20258;-74
2023/08/13 17:26:24;;;;;;;0.20;0.20;;;23.70;99.90;27.20;101436.00;;;;5032598;28;20294;-74
2023/08/13 17:28:55;;;;;;;0.10;0.10;;;23.40;99.90;28.60;101439.00;;;;5034039;28;20713;-74
2023/08/13 17:31:21;;;;;;;0.10;0.10;;;23.80;99.90;28.40;101448.00;;;;5032140;28;20858;-74
2023/08/13 17:33:52;;;;;;;0.25;0.25;;;24.10;99.90;28.50;101452.00;;;;5025818;28;20601;-74
2023/08/13 17:36:18;;;;;;;0.10;0.10;;;24.10;99.90;28.30;101399.00;;;;5012948;28;20195;-75
2023/08/13 17:38:47;;;;;;;0.20;0.20;;;23.90;99.90;29.10;101446.00;;;;5032254;28;20183;-74
2023/08/13 17:41:18;;;;;;;0.85;0.60;;;24.30;99.90;27.80;101464.00;;;;5033481;28;20225;-74
2023/08/13 17:43:44;;;;;;;0.20;0.20;;;24.00;99.90;28.50;101456.00;;;;5015642;28;20195;-74
2023/08/13 17:46:13;;;;;;;0.20;0.20;;;24.00;99.90;27.20;101462.00;;;;5031785;28;20707;-74
2023/08/13 17:48:39;;;;;;;0.30;0.30;;;23.70;99.90;27.60;101444.00;;;;5033108;28;20560;-73
2023/08/13 17:51:10;;;;;;;0.10;0.10;;;23.50;99.90;27.80;101434.00;;;;5033596;28;20179;-74
2023/08/13 17:53:36;;;;;;;0.10;0.10;;;23.40;99.90;28.10;101433.00;;;;5015391;28;20679;-73
2023/08/13 17:56:08;;;;;;;0.10;0.10;;;23.50;99.90;28.80;101441.00;;;;5033535;28;20206;-74
2023/08/13 17:58:36;;;;;;;0.20;0.20;;;23.90;99.90;28.70;101455.00;;;;5032305;28;20234;-74
2023/08/13 18:01:08;;;;;;;0.20;0.20;;;24.10;99.90;28.70;101407.00;;;;5033111;28;20190;-74
2023/08/13 18:03:34;;;;;;;0.10;0.10;;;24.00;99.90;27.60;101463.00;;;;5033270;28;20210;-74
2023/08/13 18:06:11;;;;;;;0.13;0.13;;;23.80;99.90;27.50;101419.00;;;;5033301;28;20577;-74
2023/08/13 18:08:42;;;;;;;2.10;1.48;;;23.40;99.90;27.80;101441.00;;;;5027258;28;20201;-74